Time;durP1;ratioP1;P1;durP2;ratioP2;P2;SDS_P1;SDS_P2;PMS_P1;PMS_P2;Temp;Humidity;BMP_temperature;BMP_pressure;BME280_temperature;BME280_humidity;BME280_pressure;Samples;Min_cycle;Max_cycle;Signal;HPM_P1;HPM_P2
2022/05/27 00:01:14;;;;;;;;;;;;;;;;;;4978796;28;20544;-67
2022/05/27 00:03:40;;;;;;;3.45;1.00;;;;;;;;;;4981287;28;19922;-70
2022/05/27 00:06:06;;;;;;;2.92;1.20;;;;;;;;;;4984994;28;20381;-68
2022/05/27 00:08:31;;;;;;;7.10;1.20;;;;;;;;;;4985133;28;20049;-68
2022/05/27 00:10:58;;;;;;;3.50;1.30;;;;;;;;;;4984949;28;20453;-69
2022/05/27 00:13:24;;;;;;;5.10;1.23;;;;;;;;;;4984679;28;20048;-67
2022/05/27 00:15:50;;;;;;;4.97;1.63;;;;;;;;;;4985723;28;22296;-69
2022/05/27 00:18:15;;;;;;;19.48;3.33;;;;;;;;;;4985727;28;20022;-69
2022/05/27 00:20:41;;;;;;;6.85;1.60;;;;;;;;;;4983390;28;20030;-70
2022/05/27 00:23:07;;;;;;;4.97;1.45;;;;;;;;;;4986285;28;20100;-70
2022/05/27 00:25:33;;;;;;;9.57;1.52;;;;;;;;;;4984207;28;20489;-68
2022/05/27 00:27:59;;;;;;;7.70;1.40;;;;;;;;;;4982787;28;20592;-67
2022/05/27 00:30:26;;;;;;;4.78;1.05;;;;;;;;;;4985910;28;20041;-69
2022/05/27 00:32:51;;;;;;;3.08;1.23;;;;;;;;;;4985564;28;20046;-70
2022/05/27 00:35:16;;;;;;;1.90;1.10;;;;;;;;;;4985402;28;20054;-70
2022/05/27 00:37:42;;;;;;;1.88;0.93;;;;;;;;;;4984424;28;20096;-70
2022/05/27 00:40:10;;;;;;;2.72;1.33;;;;;;;;;;4985212;28;21335;-69
2022/05/27 00:42:43;;;;;;;2.30;1.02;;;;;;;;;;4983416;28;20033;-70
2022/05/27 00:45:25;;;;;;;2.30;0.85;;;;;;;;;;4987167;28;20037;-69
2022/05/27 00:47:54;;;;;;;4.20;1.10;;;;;;;;;;4985913;28;20405;-70
2022/05/27 00:50:27;;;;;;;4.35;1.13;;;;;;;;;;4986183;28;20096;-69
2022/05/27 00:52:54;;;;;;;2.45;0.80;;;;;;;;;;4983675;28;20034;-70
2022/05/27 00:55:29;;;;;;;5.80;1.75;;;;;;;;;;4983953;28;21346;-70
2022/05/27 00:58:12;;;;;;;4.07;1.45;;;;;;;;;;4983837;28;20091;-70
2022/05/27 01:00:39;;;;;;;4.78;1.08;;;;;;;;;;4983498;28;20058;-70
2022/05/27 01:03:07;;;;;;;6.38;1.20;;;;;;;;;;4983323;28;20088;-70
2022/05/27 01:05:33;;;;;;;3.10;1.10;;;;;;;;;;4984593;28;20034;-70
2022/05/27 01:08:03;;;;;;;2.80;0.90;;;;;;;;;;4982178;28;20445;-71
2022/05/27 01:10:34;;;;;;;2.95;0.90;;;;;;;;;;4982668;28;20038;-70
2022/05/27 01:13:16;;;;;;;1.77;1.00;;;;;;;;;;4983757;28;20038;-69
2022/05/27 01:15:44;;;;;;;3.25;1.00;;;;;;;;;;4983236;28;20416;-70
2022/05/27 01:18:13;;;;;;;3.17;1.02;;;;;;;;;;4984815;28;20038;-70
2022/05/27 01:20:46;;;;;;;15.93;1.27;;;;;;;;;;4984238;28;20095;-70
2022/05/27 01:23:29;;;;;;;4.22;1.60;;;;;;;;;;4983599;28;20718;-70
2022/05/27 01:26:00;;;;;;;;;;;;;;;;;;4984137;28;20124;-67
2022/05/27 01:28:32;;;;;;;2.22;1.00;;;;;;;;;;4984369;28;20011;-69
2022/05/27 01:31:32;;;;;;;2.10;0.85;;;;;;;;;;4983437;28;20484;-69
2022/05/27 01:34:23;;;;;;;2.70;0.88;;;;;;;;;;4978754;28;20411;-69
2022/05/27 01:37:11;;;;;;;2.97;0.98;;;;;;;;;;4983473;28;20034;-69
2022/05/27 01:39:45;;;;;;;3.63;0.98;;;;;;;;;;4981941;28;20036;-71
2022/05/27 01:42:24;;;;;;;2.13;0.93;;;;;;;;;;4982417;28;20764;-70
2022/05/27 01:45:03;;;;;;;4.88;1.10;;;;;;;;;;4985130;28;20131;-69
2022/05/27 01:47:35;;;;;;;4.28;1.08;;;;;;;;;;4984306;28;20062;-70
2022/05/27 01:50:22;;;;;;;1.77;1.30;;;;;;;;;;4985749;28;20041;-69
2022/05/27 01:53:06;;;;;;;4.88;1.30;;;;;;;;;;4984771;28;20050;-69
2022/05/27 01:55:49;;;;;;;2.55;0.88;;;;;;;;;;4985899;28;20038;-70
2022/05/27 01:58:31;;;;;;;2.88;1.10;;;;;;;;;;4984955;28;20050;-70
2022/05/27 02:00:57;;;;;;;3.17;1.13;;;;;;;;;;4984008;28;20522;-70
2022/05/27 02:03:35;;;;;;;3.10;1.08;;;;;;;;;;4985044;28;20176;-69
2022/05/27 02:06:45;;;;;;;4.18;1.30;;;;;;;;;;4984350;28;20612;-70
2022/05/27 02:09:19;;;;;;;2.45;1.10;;;;;;;;;;4967891;28;20108;-69
2022/05/27 02:11:48;;;;;;;5.22;1.30;;;;;;;;;;4985514;28;20046;-70
2022/05/27 02:14:23;;;;;;;4.05;1.20;;;;;;;;;;4985585;28;20483;-71
2022/05/27 02:16:55;;;;;;;3.75;1.20;;;;;;;;;;4984895;28;20492;-69
2022/05/27 02:19:47;;;;;;;5.10;1.27;;;;;;;;;;4985680;28;20061;-67
2022/05/27 02:22:17;;;;;;;2.40;1.02;;;;;;;;;;4983143;28;20125;-69
2022/05/27 02:24:47;;;;;;;5.07;1.20;;;;;;;;;;4984433;28;20033;-68
2022/05/27 02:27:17;;;;;;;6.18;1.20;;;;;;;;;;4983849;28;20030;-69
2022/05/27 02:29:47;;;;;;;3.13;1.17;;;;;;;;;;4984881;28;20038;-70
2022/05/27 02:32:20;;;;;;;1.52;1.08;;;;;;;;;;4984196;28;20427;-68
2022/05/27 02:35:08;;;;;;;2.92;1.15;;;;;;;;;;4984571;28;20096;-70
2022/05/27 02:37:38;;;;;;;2.30;1.05;;;;;;;;;;4985753;28;20040;-69
2022/05/27 02:40:12;;;;;;;1.42;0.90;;;;;;;;;;4985423;28;20038;-70
2022/05/27 02:43:12;;;;;;;4.50;1.27;;;;;;;;;;4983893;28;20037;-68
2022/05/27 02:45:52;;;;;;;3.13;1.33;;;;;;;;;;4985888;28;20124;-69
2022/05/27 02:48:40;;;;;;;4.78;1.23;;;;;;;;;;4987337;28;20092;-68
2022/05/27 02:51:14;;;;;;;2.92;1.17;;;;;;;;;;4985270;28;20041;-70
2022/05/27 02:54:00;;;;;;;1.83;1.13;;;;;;;;;;4983820;28;20042;-69
2022/05/27 02:56:49;;;;;;;5.10;1.60;;;;;;;;;;4984632;28;20038;-68
2022/05/27 02:59:18;;;;;;;4.45;1.60;;;;;;;;;;4983937;28;20557;-70
2022/05/27 03:01:46;;;;;;;2.90;1.60;;;;;;;;;;4984349;28;20104;-69
2022/05/27 03:04:12;;;;;;;3.85;1.25;;;;;;;;;;4982609;28;20121;-69
2022/05/27 03:07:27;;;;;;;2.95;1.30;;;;;;;;;;4983822;28;20029;-69
2022/05/27 03:09:57;;;;;;;3.80;1.45;;;;;;;;;;4962260;28;20675;-69
2022/05/27 03:12:37;;;;;;;3.72;1.70;;;;;;;;;;4984007;28;20040;-67
2022/05/27 03:15:33;;;;;;;4.20;1.50;;;;;;;;;;4983056;28;20057;-70
2022/05/27 03:18:31;;;;;;;1.70;1.30;;;;;;;;;;4982733;28;20037;-68
2022/05/27 03:21:31;;;;;;;3.45;1.65;;;;;;;;;;4982255;28;20042;-68
2022/05/27 03:24:23;;;;;;;4.65;1.85;;;;;;;;;;4903701;29;20483;-70
2022/05/27 03:27:12;;;;;;;4.60;1.48;;;;;;;;;;4976095;28;20806;-70
2022/05/27 03:29:51;;;;;;;5.35;1.67;;;;;;;;;;4982562;28;20052;-70
2022/05/27 03:32:22;;;;;;;3.72;1.48;;;;;;;;;;4984611;28;20041;-69
2022/05/27 03:35:06;;;;;;;3.47;1.60;;;;;;;;;;4982809;28;20034;-69
2022/05/27 03:37:51;;;;;;;3.38;1.58;;;;;;;;;;4983248;28;20173;-69
2022/05/27 03:40:28;;;;;;;4.15;1.58;;;;;;;;;;4983522;28;20041;-68
2022/05/27 03:42:54;;;;;;;3.13;1.60;;;;;;;;;;4982390;28;22554;-69
2022/05/27 03:45:22;;;;;;;5.28;1.60;;;;;;;;;;4984449;28;20041;-69
2022/05/27 03:47:48;;;;;;;4.15;1.48;;;;;;;;;;4982648;28;20670;-70
2022/05/27 03:50:18;;;;;;;5.93;1.60;;;;;;;;;;4982858;28;20060;-69
2022/05/27 03:52:47;;;;;;;1.65;1.35;;;;;;;;;;4983649;28;20090;-69
2022/05/27 03:55:15;;;;;;;4.03;1.30;;;;;;;;;;4982304;28;20531;-69
2022/05/27 03:57:40;;;;;;;1.75;1.30;;;;;;;;;;4982712;28;20032;-69
2022/05/27 04:00:11;;;;;;;4.03;1.52;;;;;;;;;;4982946;28;20466;-69
2022/05/27 04:02:37;;;;;;;2.88;1.40;;;;;;;;;;4983110;28;20050;-68
2022/05/27 04:05:04;;;;;;;5.43;1.55;;;;;;;;;;4980453;28;20038;-69
2022/05/27 04:07:29;;;;;;;3.10;1.40;;;;;;;;;;4983260;28;20038;-69
2022/05/27 04:09:55;;;;;;;2.20;1.20;;;;;;;;;;4979471;28;20053;-70
2022/05/27 04:12:21;;;;;;;2.17;1.13;;;;;;;;;;4982301;28;20074;-69
2022/05/27 04:14:53;;;;;;;6.22;1.30;;;;;;;;;;4982333;28;20103;-68
2022/05/27 04:17:30;;;;;;;2.83;1.30;;;;;;;;;;4980503;28;20049;-68
2022/05/27 04:19:56;;;;;;;2.45;1.38;;;;;;;;;;4981754;28;20042;-68
2022/05/27 04:22:22;;;;;;;4.97;1.50;;;;;;;;;;4978589;28;20707;-69
2022/05/27 04:24:47;;;;;;;6.10;1.73;;;;;;;;;;4982399;28;20033;-70
2022/05/27 04:27:15;;;;;;;5.15;1.80;;;;;;;;;;4981295;28;20037;-69
2022/05/27 04:29:42;;;;;;;3.60;1.58;;;;;;;;;;4980811;28;20212;-69
2022/05/27 04:32:08;;;;;;;3.97;1.50;;;;;;;;;;4980466;28;20069;-70
2022/05/27 04:34:34;;;;;;;2.85;1.48;;;;;;;;;;4982958;28;20046;-69
2022/05/27 04:37:00;;;;;;;2.63;2.10;;;;;;;;;;4982449;28;20042;-71
2022/05/27 04:39:26;;;;;;;3.97;1.50;;;;;;;;;;4981324;28;20029;-69
2022/05/27 04:41:51;;;;;;;3.13;1.60;;;;;;;;;;4982457;28;20077;-70
2022/05/27 04:44:16;;;;;;;3.60;1.52;;;;;;;;;;4981178;28;20034;-68
2022/05/27 04:46:45;;;;;;;3.20;1.30;;;;;;;;;;4980005;28;20140;-70
2022/05/27 04:49:50;;;;;;;2.72;1.52;;;;;;;;;;4984638;28;20041;-70
2022/05/27 04:51:56;;;;;;;5.30;1.42;;;;;;;;;;4985275;28;20053;-69
2022/05/27 04:54:22;;;;;;;5.40;1.33;;;;;;;;;;4982937;28;21553;-70
2022/05/27 04:56:47;;;;;;;6.05;1.90;;;;;;;;;;4983364;28;20046;-70
2022/05/27 04:59:13;;;;;;;4.82;1.70;;;;;;;;;;4983659;28;20851;-69
2022/05/27 05:01:38;;;;;;;4.95;1.30;;;;;;;;;;4982825;28;20069;-68
2022/05/27 05:04:03;;;;;;;6.03;1.63;;;;;;;;;;4981242;28;20176;-69
2022/05/27 05:06:29;;;;;;;2.42;1.35;;;;;;;;;;4983673;28;20038;-68
2022/05/27 05:08:54;;;;;;;3.25;1.30;;;;;;;;;;4984324;28;20041;-68
2022/05/27 05:11:20;;;;;;;3.95;1.00;;;;;;;;;;4982550;28;20033;-70
2022/05/27 05:13:45;;;;;;;2.72;1.20;;;;;;;;;;4981889;28;20037;-68
2022/05/27 05:16:12;;;;;;;3.20;1.10;;;;;;;;;;4982600;28;20033;-68
2022/05/27 05:18:37;;;;;;;2.70;1.13;;;;;;;;;;4984122;28;20559;-69
2022/05/27 05:21:03;;;;;;;2.22;1.05;;;;;;;;;;4984102;28;20022;-67
2022/05/27 05:23:28;;;;;;;2.72;0.77;;;;;;;;;;4984476;28;20049;-67
2022/05/27 05:25:54;;;;;;;3.75;1.23;;;;;;;;;;4983473;28;20076;-67
2022/05/27 05:28:19;;;;;;;2.30;0.90;;;;;;;;;;4985211;28;20049;-70
2022/05/27 05:30:44;;;;;;;2.33;1.08;;;;;;;;;;4984040;28;20473;-70
2022/05/27 05:33:10;;;;;;;2.78;1.17;;;;;;;;;;4987007;28;20712;-69
2022/05/27 05:35:36;;;;;;;1.10;0.90;;;;;;;;;;4983778;28;20504;-69
2022/05/27 05:38:02;;;;;;;2.25;0.95;;;;;;;;;;4984352;28;20050;-70
2022/05/27 05:40:27;;;;;;;4.38;1.20;;;;;;;;;;4985105;28;21221;-68
2022/05/27 05:42:53;;;;;;;2.72;0.90;;;;;;;;;;4984023;28;20049;-69
2022/05/27 05:45:19;;;;;;;3.03;0.88;;;;;;;;;;4983317;28;20064;-68
2022/05/27 05:47:45;;;;;;;1.63;0.85;;;;;;;;;;4985005;28;20789;-69
2022/05/27 05:50:12;;;;;;;2.38;1.05;;;;;;;;;;4982320;28;20139;-69
2022/05/27 05:52:38;;;;;;;2.15;0.73;;;;;;;;;;4983791;28;20069;-69
2022/05/27 05:55:04;;;;;;;2.28;0.95;;;;;;;;;;4981601;28;20173;-70
2022/05/27 05:57:30;;;;;;;1.25;0.90;;;;;;;;;;4985087;28;20037;-69
2022/05/27 05:59:55;;;;;;;1.13;0.98;;;;;;;;;;4981533;28;20485;-70
2022/05/27 06:02:21;;;;;;;2.35;1.20;;;;;;;;;;4981665;28;20038;-69
2022/05/27 06:04:46;;;;;;;2.55;1.10;;;;;;;;;;4983863;28;20665;-69
2022/05/27 06:07:13;;;;;;;2.08;0.77;;;;;;;;;;4983611;28;20045;-69
2022/05/27 06:09:40;;;;;;;2.17;0.98;;;;;;;;;;4985956;28;20038;-69
2022/05/27 06:12:05;;;;;;;2.75;1.25;;;;;;;;;;4984501;28;20068;-69
2022/05/27 06:14:31;;;;;;;2.53;0.95;;;;;;;;;;4983401;28;20729;-68
2022/05/27 06:16:56;;;;;;;1.23;0.88;;;;;;;;;;4984464;28;20044;-69
2022/05/27 06:19:22;;;;;;;2.63;1.13;;;;;;;;;;4982397;28;20076;-69
2022/05/27 06:21:47;;;;;;;2.60;1.52;;;;;;;;;;4983272;28;20026;-70
2022/05/27 06:24:12;;;;;;;2.30;1.20;;;;;;;;;;4979657;28;20306;-68
2022/05/27 06:26:39;;;;;;;2.25;1.10;;;;;;;;;;4983173;28;20040;-69
2022/05/27 06:34:33;;;;;;;3.10;0.90;;;;;;;;;;4982907;28;20085;-69
2022/05/27 06:37:25;;;;;;;1.73;0.80;;;;;;;;;;4983554;28;20050;-70
2022/05/27 06:39:51;;;;;;;3.90;0.70;;;;;;;;;;4978233;28;21518;-68
2022/05/27 06:42:17;;;;;;;1.10;0.65;;;;;;;;;;4980116;28;20086;-68
2022/05/27 06:44:43;;;;;;;1.38;0.55;;;;;;;;;;4982923;28;20149;-68
2022/05/27 06:47:09;;;;;;;2.17;0.80;;;;;;;;;;4980750;28;20046;-69
2022/05/27 06:49:37;;;;;;;3.22;0.90;;;;;;;;;;4981905;28;20551;-70
2022/05/27 06:52:04;;;;;;;2.47;0.82;;;;;;;;;;4983640;28;20056;-70
2022/05/27 06:54:30;;;;;;;2.42;0.73;;;;;;;;;;4983597;28;20053;-70
2022/05/27 06:56:56;;;;;;;1.30;0.65;;;;;;;;;;4984544;28;20046;-69
2022/05/27 06:59:23;;;;;;;3.20;0.68;;;;;;;;;;4983338;28;20034;-69
2022/05/27 07:01:49;;;;;;;2.30;0.77;;;;;;;;;;4983663;28;20091;-70
2022/05/27 07:04:15;;;;;;;1.48;0.50;;;;;;;;;;4984281;28;20497;-69
2022/05/27 07:06:43;;;;;;;0.82;0.50;;;;;;;;;;4983490;28;20057;-68
2022/05/27 07:09:14;;;;;;;1.25;0.57;;;;;;;;;;4983242;28;20105;-69
2022/05/27 07:11:42;;;;;;;1.30;0.60;;;;;;;;;;4981693;28;20532;-70
2022/05/27 07:14:07;;;;;;;1.52;0.60;;;;;;;;;;4981350;28;20106;-69
2022/05/27 07:16:38;;;;;;;2.05;0.77;;;;;;;;;;4984926;28;20042;-69
2022/05/27 07:19:04;;;;;;;1.45;0.60;;;;;;;;;;4982893;28;20050;-69
2022/05/27 07:21:30;;;;;;;1.77;1.00;;;;;;;;;;4985228;28;20030;-69
2022/05/27 07:23:56;;;;;;;3.38;0.93;;;;;;;;;;4982432;28;20123;-69
2022/05/27 07:26:24;;;;;;;2.08;0.60;;;;;;;;;;4981963;28;20042;-69
2022/05/27 07:28:49;;;;;;;0.65;0.50;;;;;;;;;;4983828;28;20033;-68
2022/05/27 07:31:17;;;;;;;0.80;0.57;;;;;;;;;;4982756;28;20822;-68
2022/05/27 07:33:44;;;;;;;1.40;0.77;;;;;;;;;;4982747;28;20061;-70
2022/05/27 07:36:10;;;;;;;1.45;0.60;;;;;;;;;;4981312;28;20048;-70
2022/05/27 07:38:35;;;;;;;2.35;0.63;;;;;;;;;;4983844;28;20527;-69
2022/05/27 07:41:00;;;;;;;0.63;0.47;;;;;;;;;;4983122;28;20045;-69
2022/05/27 07:43:26;;;;;;;0.65;0.57;;;;;;;;;;4983489;28;20046;-69
2022/05/27 07:45:52;;;;;;;1.83;0.60;;;;;;;;;;4982578;28;20363;-69
2022/05/27 07:48:17;;;;;;;1.95;0.50;;;;;;;;;;4983773;28;20033;-69
2022/05/27 07:50:43;;;;;;;0.40;0.40;;;;;;;;;;4982880;28;20054;-69
2022/05/27 07:53:09;;;;;;;0.50;0.50;;;;;;;;;;4982558;28;20141;-69
2022/05/27 07:55:34;;;;;;;2.30;0.55;;;;;;;;;;4983496;28;20494;-69
2022/05/27 07:58:00;;;;;;;0.65;0.55;;;;;;;;;;4982599;28;20041;-70
2022/05/27 08:00:28;;;;;;;1.10;0.60;;;;;;;;;;4983448;28;20088;-69
2022/05/27 08:02:54;;;;;;;1.20;0.60;;;;;;;;;;4982598;28;20060;-69
2022/05/27 08:05:22;;;;;;;0.80;0.50;;;;;;;;;;4982296;28;20046;-70
2022/05/27 08:07:49;;;;;;;1.92;0.60;;;;;;;;;;4982542;28;20604;-70
2022/05/27 08:10:18;;;;;;;0.88;0.50;;;;;;;;;;4979408;28;20052;-69
2022/05/27 08:12:44;;;;;;;1.80;0.50;;;;;;;;;;4981190;28;20066;-69
2022/05/27 08:15:10;;;;;;;3.72;0.77;;;;;;;;;;4981932;28;20049;-69
2022/05/27 08:17:36;;;;;;;1.55;0.68;;;;;;;;;;4981783;28;20045;-68
2022/05/27 08:20:04;;;;;;;1.20;0.57;;;;;;;;;;4982590;28;20073;-68
2022/05/27 08:22:30;;;;;;;1.58;0.50;;;;;;;;;;4982416;28;23113;-69
2022/05/27 08:24:55;;;;;;;0.77;0.60;;;;;;;;;;4985254;28;20048;-68
2022/05/27 08:27:21;;;;;;;0.73;0.43;;;;;;;;;;4984962;28;20375;-69
2022/05/27 08:29:46;;;;;;;0.90;0.60;;;;;;;;;;4987352;28;20046;-69
2022/05/27 08:32:11;;;;;;;0.60;0.35;;;;;;;;;;4986909;28;20053;-69
2022/05/27 08:40:31;;;;;;;2.63;0.60;;;;;;;;;;4987329;28;20092;-68
2022/05/27 08:43:06;;;;;;;1.00;0.50;;;;;;;;;;4986486;28;20141;-68
2022/05/27 08:45:34;;;;;;;2.03;0.70;;;;;;;;;;4987396;28;20121;-68
2022/05/27 08:48:05;;;;;;;0.88;0.55;;;;;;;;;;4985792;28;20557;-69
2022/05/27 08:51:06;;;;;;;1.83;0.50;;;;;;;;;;4985520;28;20034;-68
2022/05/27 08:53:33;;;;;;;1.92;0.60;;;;;;;;;;4970351;28;20050;-70
2022/05/27 09:01:45;;;;;;;0.35;0.35;;;;;;;;;;4985784;28;20088;-69
2022/05/27 09:04:46;;;;;;;1.55;0.47;;;;;;;;;;4983512;28;20049;-69
2022/05/27 09:07:42;;;;;;;1.05;0.50;;;;;;;;;;4952580;28;20849;-69
2022/05/27 09:10:16;;;;;;;1.05;0.60;;;;;;;;;;4985690;28;20065;-69
2022/05/27 09:12:47;;;;;;;0.55;0.50;;;;;;;;;;4984625;28;20164;-69
2022/05/27 09:15:26;;;;;;;1.20;0.70;;;;;;;;;;4986229;28;20556;-69
2022/05/27 09:18:13;;;;;;;3.15;0.60;;;;;;;;;;4985450;28;20065;-69
2022/05/27 09:20:47;;;;;;;2.15;0.80;;;;;;;;;;4986478;28;20132;-67
2022/05/27 09:23:21;;;;;;;3.67;0.80;;;;;;;;;;4985721;28;20056;-69
2022/05/27 09:26:11;;;;;;;1.52;0.40;;;;;;;;;;4983639;28;20492;-69
2022/05/27 09:29:06;;;;;;;1.50;0.70;;;;;;;;;;4984559;28;21619;-69
2022/05/27 09:31:37;;;;;;;0.95;0.40;;;;;;;;;;4957553;28;20128;-69
2022/05/27 09:34:03;;;;;;;2.72;0.65;;;;;;;;;;4984759;28;20056;-70
2022/05/27 09:36:38;;;;;;;1.15;0.47;;;;;;;;;;4984985;28;20026;-69
2022/05/27 09:39:10;;;;;;;0.90;0.70;;;;;;;;;;4984602;28;20115;-70
2022/05/27 09:41:57;;;;;;;2.45;0.70;;;;;;;;;;4986378;28;20892;-69
2022/05/27 09:44:32;;;;;;;2.30;0.70;;;;;;;;;;4986634;28;21390;-69
2022/05/27 09:46:58;;;;;;;8.27;1.10;;;;;;;;;;4985628;28;20560;-68
2022/05/27 09:49:24;;;;;;;1.30;0.70;;;;;;;;;;4984269;28;20048;-68
2022/05/27 09:51:51;;;;;;;0.90;0.60;;;;;;;;;;4987014;28;20664;-71
2022/05/27 09:54:26;;;;;;;2.53;0.98;;;;;;;;;;4985881;28;21449;-69
2022/05/27 09:57:13;;;;;;;1.08;0.73;;;;;;;;;;4987078;28;20527;-70
2022/05/27 09:59:53;;;;;;;2.65;0.60;;;;;;;;;;4986058;28;20120;-67
2022/05/27 10:02:26;;;;;;;1.75;0.60;;;;;;;;;;4983551;28;20042;-69
2022/05/27 10:04:58;;;;;;;1.05;0.60;;;;;;;;;;4985576;28;20561;-70
2022/05/27 10:07:43;;;;;;;0.52;0.38;;;;;;;;;;4984868;28;20678;-69
2022/05/27 10:10:31;;;;;;;1.00;0.40;;;;;;;;;;4985821;28;20049;-67
2022/05/27 10:13:12;;;;;;;1.48;0.40;;;;;;;;;;4985434;28;20046;-69
2022/05/27 10:15:38;;;;;;;1.65;0.40;;;;;;;;;;4986057;28;20417;-70
2022/05/27 10:18:26;;;;;;;1.30;0.35;;;;;;;;;;4984888;28;20442;-69
2022/05/27 10:21:05;;;;;;;1.45;0.30;;;;;;;;;;4982503;28;20410;-70
2022/05/27 10:23:35;;;;;;;1.17;0.40;;;;;;;;;;4981977;28;20092;-69
2022/05/27 10:26:23;;;;;;;0.47;0.25;;;;;;;;;;4982849;28;20454;-69
2022/05/27 10:29:13;;;;;;;3.33;0.50;;;;;;;;;;4985559;28;20925;-70
2022/05/27 10:31:52;;;;;;;1.00;0.38;;;;;;;;;;4982377;28;20588;-69
2022/05/27 10:34:37;;;;;;;1.30;0.30;;;;;;;;;;4983693;28;20041;-69
2022/05/27 10:37:09;;;;;;;0.30;0.20;;;;;;;;;;4984997;28;20501;-70
2022/05/27 10:40:00;;;;;;;0.43;0.30;;;;;;;;;;4983430;28;20029;-70
2022/05/27 10:42:53;;;;;;;0.20;0.20;;;;;;;;;;4985341;28;20402;-69
2022/05/27 10:45:24;;;;;;;0.60;0.30;;;;;;;;;;4984440;28;20517;-70
2022/05/27 10:47:52;;;;;;;1.27;0.28;;;;;;;;;;4981450;28;20785;-69
2022/05/27 10:50:32;;;;;;;2.17;0.32;;;;;;;;;;4982454;28;20494;-69
2022/05/27 10:53:26;;;;;;;1.85;0.30;;;;;;;;;;4983824;28;20056;-68
2022/05/27 10:56:30;;;;;;;3.80;0.68;;;;;;;;;;4995260;28;20187;-69
2022/05/27 11:02:33;;;;;;;2.85;0.60;;;;;;;;;;4985070;28;20091;-69
2022/05/27 11:05:19;;;;;;;1.23;0.30;;;;;;;;;;4996393;28;20553;-68
2022/05/27 11:08:14;;;;;;;0.70;0.40;;;;;;;;;;4983055;28;20639;-70
2022/05/27 11:10:43;;;;;;;2.30;0.20;;;;;;;;;;4980485;28;20053;-68
2022/05/27 11:16:35;;;;;;;0.25;0.20;;;;;;;;;;4986400;28;20045;-68
2022/05/27 11:19:36;;;;;;;1.65;0.40;;;;;;;;;;4980344;28;20095;-67
2022/05/27 11:22:26;;;;;;;0.20;0.20;;;;;;;;;;4974983;28;20067;-67
2022/05/27 11:25:16;;;;;;;0.13;0.10;;;;;;;;;;4986321;28;21849;-70
2022/05/27 11:28:05;;;;;;;3.40;0.20;;;;;;;;;;4983356;28;20565;-68
2022/05/27 11:30:49;;;;;;;3.13;0.40;;;;;;;;;;4985916;28;20512;-68
2022/05/27 11:33:29;;;;;;;0.20;0.20;;;;;;;;;;4984591;28;20046;-69
2022/05/27 11:36:22;;;;;;;0.50;0.32;;;;;;;;;;4984565;28;20037;-69
2022/05/27 11:39:27;;;;;;;0.47;0.47;;;;;;;;;;4981845;28;20549;-69
2022/05/27 11:42:05;;;;;;;0.30;0.22;;;;;;;;;;4966658;28;20127;-68
2022/05/27 11:44:43;;;;;;;2.40;0.30;;;;;;;;;;4984253;28;20046;-69
2022/05/27 11:47:50;;;;;;;2.05;0.40;;;;;;;;;;4983913;28;20038;-69
2022/05/27 11:50:25;;;;;;;0.50;0.50;;;;;;;;;;4985693;28;20061;-69
2022/05/27 11:52:53;;;;;;;0.85;0.40;;;;;;;;;;4986468;28;20123;-69
2022/05/27 11:55:37;;;;;;;0.28;0.28;;;;;;;;;;4989895;28;20541;-68
2022/05/27 11:58:29;;;;;;;0.20;0.20;;;;;;;;;;4977650;28;20033;-69
2022/05/27 12:00:59;;;;;;;1.05;0.40;;;;;;;;;;4945193;28;20068;-69
2022/05/27 12:03:38;;;;;;;0.85;0.50;;;;;;;;;;4987866;28;20638;-69
2022/05/27 12:06:09;;;;;;;0.50;0.50;;;;;;;;;;4988273;28;20493;-69
2022/05/27 12:08:42;;;;;;;3.55;0.45;;;;;;;;;;4984148;28;20049;-70
2022/05/27 12:11:23;;;;;;;0.65;0.50;;;;;;;;;;4986994;28;20046;-68
2022/05/27 12:14:23;;;;;;;0.50;0.50;;;;;;;;;;4986825;28;22341;-68
2022/05/27 12:16:50;;;;;;;1.45;0.80;;;;;;;;;;4987075;28;20042;-69
2022/05/27 12:19:19;;;;;;;0.60;0.60;;;;;;;;;;4988077;28;20042;-70
2022/05/27 12:21:54;;;;;;;1.67;0.75;;;;;;;;;;4988643;28;20500;-69
2022/05/27 12:24:31;;;;;;;1.17;0.60;;;;;;;;;;4989698;28;20045;-68
2022/05/27 12:26:58;;;;;;;1.45;0.50;;;;;;;;;;4988886;28;20048;-69
2022/05/27 12:29:27;;;;;;;0.40;0.40;;;;;;;;;;4989522;28;20129;-68
2022/05/27 12:31:54;;;;;;;0.70;0.40;;;;;;;;;;4986665;28;20046;-68
2022/05/27 12:34:25;;;;;;;0.57;0.47;;;;;;;;;;4984273;28;20041;-69
2022/05/27 12:36:51;;;;;;;2.30;0.60;;;;;;;;;;4988939;28;20509;-68
2022/05/27 12:39:25;;;;;;;0.55;0.50;;;;;;;;;;4989252;28;20048;-68
2022/05/27 12:42:08;;;;;;;0.80;0.80;;;;;;;;;;4987507;28;20053;-69
2022/05/27 12:44:33;;;;;;;1.25;1.00;;;;;;;;;;4988683;28;20048;-69
2022/05/27 12:47:01;;;;;;;1.23;0.90;;;;;;;;;;4988355;28;20042;-68
2022/05/27 12:49:41;;;;;;;0.82;0.82;;;;;;;;;;4989793;28;20119;-68
2022/05/27 12:52:29;;;;;;;6.32;1.30;;;;;;;;;;4988103;28;20052;-69
2022/05/27 12:54:56;;;;;;;2.33;0.90;;;;;;;;;;4980575;28;20092;-67
2022/05/27 13:03:06;;;;;;;1.27;1.17;;;;;;;;;;4987935;28;20512;-70
2022/05/27 13:06:12;;;;;;;2.67;1.30;;;;;;;;;;4987155;28;20141;-69
2022/05/27 13:08:50;;;;;;;1.30;1.10;;;;;;;;;;4987122;28;20038;-68
2022/05/27 13:11:21;;;;;;;1.23;0.95;;;;;;;;;;4986265;28;20520;-68
2022/05/27 13:14:12;;;;;;;1.58;1.20;;;;;;;;;;4986823;28;20083;-68
2022/05/27 13:17:05;;;;;;;1.50;1.10;;;;;;;;;;4987955;28;20080;-68
2022/05/27 13:19:44;;;;;;;1.90;1.02;;;;;;;;;;4988042;28;20569;-69
2022/05/27 13:22:29;;;;;;;1.48;0.90;;;;;;;;;;4988520;28;20110;-69
2022/05/27 13:25:14;;;;;;;1.73;1.17;;;;;;;;;;4988281;28;20511;-69
2022/05/27 13:27:41;;;;;;;2.58;1.42;;;;;;;;;;5000658;28;20111;-69
2022/05/27 13:30:10;;;;;;;1.92;1.10;;;;;;;;;;4991913;28;20722;-68
2022/05/27 13:33:00;;;;;;;1.05;0.95;;;;;;;;;;4986208;28;20212;-68
2022/05/27 13:35:33;;;;;;;1.73;0.95;;;;;;;;;;4985703;28;20042;-69
2022/05/27 13:37:59;;;;;;;2.88;1.10;;;;;;;;;;4986948;28;20045;-68
2022/05/27 13:40:30;;;;;;;1.80;1.05;;;;;;;;;;4985628;28;20077;-68
2022/05/27 13:43:01;;;;;;;1.67;1.10;;;;;;;;;;4986029;28;20048;-68
2022/05/27 13:45:58;;;;;;;1.10;0.80;;;;;;;;;;4986629;28;20037;-68
2022/05/27 13:48:28;;;;;;;2.75;1.10;;;;;;;;;;4974154;28;20576;-67
2022/05/27 13:51:25;;;;;;;1.20;0.82;;;;;;;;;;4984833;28;20046;-70
2022/05/27 13:53:54;;;;;;;0.93;0.90;;;;;;;;;;4977389;28;20054;-69
2022/05/27 13:56:29;;;;;;;1.95;1.10;;;;;;;;;;4983433;28;20029;-69
2022/05/27 13:58:57;;;;;;;1.98;1.00;;;;;;;;;;4985161;28;20045;-69
2022/05/27 14:01:35;;;;;;;2.63;1.02;;;;;;;;;;4984554;28;20064;-69
2022/05/27 14:04:09;;;;;;;2.78;1.00;;;;;;;;;;4983947;28;20048;-69
2022/05/27 14:06:36;;;;;;;2.05;0.80;;;;;;;;;;4982353;28;20052;-70
2022/05/27 14:09:21;;;;;;;6.80;1.25;;;;;;;;;;4983785;28;20056;-69
2022/05/27 14:11:52;;;;;;;2.85;1.38;;;;;;;;;;4984232;28;20096;-69
2022/05/27 14:14:30;;;;;;;1.08;0.95;;;;;;;;;;4986271;28;20046;-69
2022/05/27 14:16:56;;;;;;;1.70;0.93;;;;;;;;;;4983580;28;20041;-69
2022/05/27 14:19:25;;;;;;;0.80;0.80;;;;;;;;;;4985467;28;20049;-69
2022/05/27 14:24:56;;;;;;;1.42;0.93;;;;;;;;;;4984783;28;20520;-70
2022/05/27 14:27:25;;;;;;;3.10;1.00;;;;;;;;;;4987362;28;20057;-68
2022/05/27 14:29:56;;;;;;;1.35;0.80;;;;;;;;;;4984801;28;20038;-69
2022/05/27 14:32:23;;;;;;;1.13;0.75;;;;;;;;;;4985083;28;20045;-69
2022/05/27 14:34:54;;;;;;;0.70;0.70;;;;;;;;;;4984492;28;20049;-70
2022/05/27 14:37:22;;;;;;;1.67;0.75;;;;;;;;;;4982856;28;20501;-69
2022/05/27 14:39:54;;;;;;;2.20;0.68;;;;;;;;;;4985849;28;20201;-69
2022/05/27 14:42:20;;;;;;;0.95;0.80;;;;;;;;;;4985041;28;20845;-69
2022/05/27 14:44:49;;;;;;;1.00;0.77;;;;;;;;;;4985300;28;20228;-69
2022/05/27 14:47:33;;;;;;;1.35;0.90;;;;;;;;;;4983811;28;20790;-69
2022/05/27 14:50:02;;;;;;;1.33;0.80;;;;;;;;;;4983376;28;20036;-69
2022/05/27 14:52:34;;;;;;;3.63;1.00;;;;;;;;;;4984240;28;20053;-68
2022/05/27 14:55:02;;;;;;;4.18;1.10;;;;;;;;;;4986020;28;20038;-69
2022/05/27 14:57:31;;;;;;;3.00;1.35;;;;;;;;;;4987750;28;20105;-69
2022/05/27 15:00:09;;;;;;;1.85;0.90;;;;;;;;;;4988448;28;20045;-69
2022/05/27 15:02:35;;;;;;;3.05;1.10;;;;;;;;;;4984668;28;20077;-71
2022/05/27 15:05:06;;;;;;;1.67;0.90;;;;;;;;;;4982061;28;20171;-70
2022/05/27 15:07:39;;;;;;;2.00;0.80;;;;;;;;;;4985113;28;20108;-70
2022/05/27 15:10:13;;;;;;;1.73;0.80;;;;;;;;;;4982870;28;20729;-70
2022/05/27 15:12:39;;;;;;;2.03;1.10;;;;;;;;;;4983497;28;20026;-69
2022/05/27 15:15:05;;;;;;;1.88;1.10;;;;;;;;;;4982613;28;20426;-69
2022/05/27 15:17:34;;;;;;;4.50;1.10;;;;;;;;;;4983939;28;20037;-68
2022/05/27 15:20:14;;;;;;;3.17;1.20;;;;;;;;;;4985079;28;20133;-68
2022/05/27 15:22:52;;;;;;;2.13;1.00;;;;;;;;;;4985301;28;20068;-71
2022/05/27 15:25:21;;;;;;;1.77;1.00;;;;;;;;;;4982079;28;20528;-69
2022/05/27 15:34:00;;;;;;;3.33;1.10;;;;;;;;;;4982847;28;20544;-69
2022/05/27 15:36:25;;;;;;;3.28;1.10;;;;;;;;;;4983303;28;20042;-69
2022/05/27 15:38:51;;;;;;;2.10;1.10;;;;;;;;;;4982456;28;20096;-68
2022/05/27 15:41:20;;;;;;;2.72;1.30;;;;;;;;;;4982439;28;20668;-68
2022/05/27 15:43:48;;;;;;;1.38;1.00;;;;;;;;;;4982134;28;20820;-68
2022/05/27 15:46:16;;;;;;;2.25;1.42;;;;;;;;;;4982474;28;20050;-69
2022/05/27 15:48:42;;;;;;;2.53;1.35;;;;;;;;;;4982346;28;20084;-68
2022/05/27 15:51:08;;;;;;;1.88;1.20;;;;;;;;;;4982545;28;20025;-68
2022/05/27 15:53:37;;;;;;;3.42;1.63;;;;;;;;;;4982701;28;20038;-68
2022/05/27 15:56:04;;;;;;;4.68;1.35;;;;;;;;;;4983818;28;20038;-68
2022/05/27 15:58:29;;;;;;;3.45;1.10;;;;;;;;;;4983278;28;20037;-68